Welcome to Northern Hawkes Bay. New Zealand.
PWS Header
      nz Flag



Hit Counter


W3C Valid W3C Valid logo


    Wairoa

Select any of the Stations below to visit their websites.










Historic Data from Weather Underground
Select the location of interest below. Wairoa is the default. Please have patience, this Data is slow to load in.
Northern Hawkes Bay Historical Data
Daily Summary for January 3, 2017 Units:  English    Metric   Both
« Previous Day
Next Day »
Daily Weekly Monthly Yearly Custom
  High: Low: Average:
Temperature: 80.4 °F 56.3 °F 66.9 °F
Dew Point: 64.8 °F 55.9 °F 58.8 °F
Humidity: 99% 49% 78%
Wind Speed: 19.7mph 0mph 4.4mph
Wind Gust: 33.6mph - -
Wind- - SW
Pressure: 30 in 29.6 in -
Precipitation: 0.01 in    
Historical Graphs
 
 
Tabular Data for January 3, 2017
Time Temperature Dew Point Pressure Wind Wind Speed Wind Gust Humidity Rainfall Rate (Hourly) solar
00:01 56.8 °F 56.7 °F 30 in NNW 1.6 mph 3.8 mph 99% 0.01 in 0 W/m2
00:20 56.8 °F 56.7 °F 30 in North 1.6 mph 3.8 mph 99% 0.01 in 0 W/m2
00:25 56.8 °F 56.7 °F 30 in North 0.7 mph 3.1 mph 99% 0.01 in 0 W/m2
00:30 56.7 °F 56.5 °F 30 in North 2.2 mph 3.8 mph 99% 0.01 in 0 W/m2
00:35 56.7 °F 56.5 °F 30 in NNW 2.2 mph 4.5 mph 99% 0.01 in 0 W/m2
00:40 56.7 °F 56.5 °F 30 in NNW 3.8 mph 4.5 mph 99% 0.01 in 0 W/m2
00:45 56.5 °F 56.1 °F 30 in NNW 1.6 mph 4.5 mph 99% 0.01 in 0 W/m2
00:50 56.5 °F 56.1 °F 30 in Calm   4.5 mph 99% 0.01 in 0 W/m2
00:55 56.5 °F 56.1 °F 30 in NNW 0.7 mph 3.1 mph 99% 0 in 0 W/m2
01:00 56.5 °F 56.1 °F 30 in NW 2.2 mph 3.1 mph 99% 0 in 0 W/m2
01:05 56.5 °F 56.1 °F 30 in NW 2.2 mph 3.1 mph 99% 0 in 0 W/m2
01:10 56.5 °F 56.1 °F 30 in NNW 1.6 mph 3.1 mph 99% 0 in 0 W/m2
01:15 56.5 °F 56.1 °F 30 in NNE 1.6 mph 3.1 mph 99% 0 in 0 W/m2
01:20 56.5 °F 56.1 °F 30 in North 1.6 mph 3.8 mph 99% 0 in 0 W/m2
01:25 56.3 °F 55.9 °F 30 in NNW 1.6 mph 3.8 mph 99% 0 in 0 W/m2
01:30 56.3 °F 55.9 °F 30 in NNW 2.2 mph 3.1 mph 99% 0 in 0 W/m2
01:35 56.5 °F 56.1 °F 30 in NNW 1.6 mph 3.1 mph 99% 0 in 0 W/m2
01:40 56.5 °F 56.1 °F 30 in NNW 2.2 mph 3.8 mph 99% 0 in 0 W/m2
01:45 56.5 °F 56.1 °F 30 in North 1.6 mph 3.8 mph 99% 0 in 0 W/m2
01:50 56.5 °F 56.1 °F 30 in North 0.7 mph 3.8 mph 99% 0 in 0 W/m2
01:55 56.5 °F 56.1 °F 30 in North 0.7 mph 3.1 mph 99% 0 in 0 W/m2
02:00 56.5 °F 56.1 °F 30 in Calm   3.1 mph 99% 0 in 0 W/m2
02:05 56.5 °F 56.1 °F 30 in NNW 0.7 mph 2.2 mph 99% 0 in 0 W/m2
02:10 56.5 °F 56.1 °F 30 in North 0.7 mph 2.2 mph 99% 0 in 0 W/m2
02:15 56.5 °F 56.1 °F 29.9 in North 1.6 mph 3.1 mph 99% 0 in 0 W/m2
02:20 56.5 °F 56.1 °F 30 in North 0.7 mph 3.1 mph 99% 0 in 0 W/m2
02:25 56.5 °F 56.1 °F 29.9 in NNW 1.6 mph 3.8 mph 99% 0 in 0 W/m2
02:30 56.5 °F 56.1 °F 29.9 in NNW 1.6 mph 3.8 mph 99% 0 in 0 W/m2
02:35 56.5 °F 56.1 °F 29.9 in NNW 1.6 mph 3.8 mph 99% 0 in 0 W/m2
02:40 56.5 °F 56.1 °F 29.9 in Calm   3.8 mph 99% 0 in 0 W/m2
02:45 56.5 °F 56.1 °F 29.9 in NW 0.7 mph 2.2 mph 99% 0 in 0 W/m2
02:50 56.5 °F 56.1 °F 29.9 in NW 0.7 mph 2.2 mph 99% 0 in 0 W/m2
02:55 56.5 °F 56.1 °F 29.9 in Calm   2.2 mph 99% 0 in 0 W/m2
03:00 56.5 °F 56.1 °F 29.9 in Calm   2.2 mph 99% 0 in 0 W/m2
03:05 56.7 °F 56.5 °F 29.9 in Calm   2.2 mph 99% 0 in 0 W/m2
03:10 56.5 °F 56.1 °F 29.9 in Calm   2.2 mph 99% 0 in 0 W/m2
03:15 56.5 °F 56.1 °F 29.9 in Calm   1.6 mph 99% 0 in 0 W/m2
03:20 56.5 °F 56.1 °F 29.9 in Calm   1.6 mph 99% 0 in 0 W/m2
03:25 56.5 °F 56.1 °F 29.9 in Calm   1.6 mph 99% 0 in 0 W/m2
03:30 56.5 °F 56.1 °F 29.9 in Calm   1.6 mph 99% 0 in 0 W/m2
03:35 56.5 °F 56.1 °F 29.9 in Calm   1.6 mph 99% 0 in 0 W/m2
03:40 56.5 °F 56.1 °F 29.9 in Calm   0.7 mph 99% 0 in 0 W/m2
03:45 56.3 °F 55.9 °F 29.9 in Calm     99% 0 in 0 W/m2
03:50 56.5 °F 56.1 °F 29.9 in NE 1.6 mph 3.1 mph 99% 0 in 0 W/m2
03:55 56.5 °F 56.1 °F 29.9 in Calm   3.1 mph 99% 0 in 0 W/m2
04:00 56.5 °F 56.1 °F 29.9 in NE 0.7 mph 3.1 mph 99% 0 in 0 W/m2
04:05 56.5 °F 56.1 °F 29.9 in NE 0.7 mph 2.2 mph 99% 0 in 0 W/m2
04:10 56.5 °F 56.1 °F 29.9 in Calm   2.2 mph 99% 0.01 in 0 W/m2
04:15 56.5 °F 56.1 °F 29.9 in Calm   3.1 mph 99% 0.01 in 0 W/m2
04:20 56.5 °F 56.1 °F 29.9 in Calm   3.1 mph 99% 0.01 in 0 W/m2
04:25 56.5 °F 56.1 °F 29.9 in Calm   0.7 mph 99% 0.01 in 0 W/m2
04:30 56.5 °F 56.1 °F 29.9 in Calm   0.7 mph 99% 0.01 in 0 W/m2
04:36 56.5 °F 56.1 °F 29.9 in Calm   0.7 mph 99% 0.01 in 0 W/m2
04:41 56.5 °F 56.1 °F 29.9 in Calm   0.7 mph 99% 0.01 in 0 W/m2
04:46 56.5 °F 56.1 °F 29.9 in Calm   0.7 mph 99% 0.01 in 0 W/m2
04:51 56.5 °F 56.1 °F 29.9 in Calm   1.6 mph 99% 0.01 in 0 W/m2
04:54 56.5 °F 56.1 °F 29.9 in Calm   1.6 mph 99% 0.01 in 0 W/m2
04:59 56.5 °F 56.1 °F 29.9 in Calm   0.7 mph 99% 0.01 in 0 W/m2
05:04 56.5 °F 56.1 °F 29.9 in Calm   0.7 mph 99% 0.01 in 0 W/m2
05:09 56.5 °F 56.1 °F 29.9 in Calm   0.7 mph 99% 0 in 0 W/m2
05:14 56.5 °F 56.1 °F 29.9 in Calm   1.6 mph 99% 0 in 0 W/m2
05:19 56.7 °F 56.5 °F 29.9 in East 0.7 mph 1.6 mph 99% 0 in 0 W/m2
05:24 56.8 °F 56.7 °F 29.9 in East 0.7 mph 1.6 mph 99% 0 in 0 W/m2
05:29 56.8 °F 56.7 °F 29.9 in East 2.2 mph 3.1 mph 99% 0 in 0 W/m2
05:34 56.8 °F 56.7 °F 29.9 in East 2.2 mph 3.8 mph 99% 0 in 0 W/m2
05:39 56.8 °F 56.7 °F 29.9 in East 1.6 mph 3.8 mph 99% 0 in 0 W/m2
05:44 56.8 °F 56.7 °F 29.9 in East 1.6 mph 3.1 mph 99% 0 in 0 W/m2
05:49 56.8 °F 56.7 °F 29.9 in East 0.7 mph 2.2 mph 99% 0 in 0 W/m2
05:54 57 °F 56.8 °F 29.9 in East 0.7 mph 2.2 mph 99% 0 in 0 W/m2
05:59 57 °F 56.8 °F 29.9 in Calm   2.2 mph 99% 0 in 1 W/m2
06:04 57 °F 56.8 °F 29.9 in Calm   2.2 mph 99% 0 in 1 W/m2
06:09 57 °F 56.8 °F 29.9 in East 0.7 mph 2.2 mph 99% 0 in 4 W/m2
06:14 57 °F 56.8 °F 29.9 in Calm   2.2 mph 99% 0 in 5 W/m2
06:19 57.2 °F 56.8 °F 29.9 in Calm   2.2 mph 99% 0 in 13 W/m2
06:24 57.2 °F 56.8 °F 29.9 in Calm   2.2 mph 99% 0 in 15 W/m2
06:29 57.4 °F 57 °F 29.9 in ENE 0.7 mph 2.2 mph 99% 0 in 18 W/m2
06:34 57.4 °F 57 °F 29.9 in East 0.7 mph 2.2 mph 99% 0 in 24 W/m2
06:39 57.6 °F 57.4 °F 29.9 in Calm   3.1 mph 99% 0 in 29 W/m2
06:44 57.6 °F 57.4 °F 29.9 in Calm   3.1 mph 99% 0 in 24 W/m2
06:49 57.7 °F 57.6 °F 29.9 in NE 0.7 mph 2.2 mph 99% 0 in 22 W/m2
06:54 57.7 °F 57.6 °F 29.9 in NE 0.7 mph 2.2 mph 99% 0 in 26 W/m2
06:59 57.7 °F 57.6 °F 29.9 in ENE 1.6 mph 3.1 mph 99% 0 in 43 W/m2
07:04 57.9 °F 57.7 °F 29.9 in East 1.6 mph 3.1 mph 99% 0 in 52 W/m2
07:09 58.1 °F 57.7 °F 29.9 in East 1.6 mph 3.1 mph 99% 0 in 57 W/m2
07:14 58.3 °F 57.7 °F 29.9 in East 1.6 mph 3.1 mph 98% 0 in 52 W/m2
07:19 58.5 °F 57.9 °F 29.9 in ENE 1.6 mph 3.1 mph 98% 0 in 50 W/m2
07:24 58.6 °F 57.7 °F 29.9 in ENE 1.6 mph 3.1 mph 97% 0 in 40 W/m2
07:29 58.6 °F 57.7 °F 29.9 in ENE 0.7 mph 3.1 mph 97% 0 in 27 W/m2
07:34 58.6 °F 57.6 °F 29.9 in NE 1.6 mph 3.1 mph 96% 0 in 32 W/m2
07:39 58.6 °F 57.6 °F 29.9 in NE 0.7 mph 3.1 mph 96% 0 in 34 W/m2
07:44 58.6 °F 57.6 °F 29.9 in Calm   2.2 mph 96% 0 in 32 W/m2
07:49 58.8 °F 57.7 °F 29.9 in NE 0.7 mph 1.6 mph 96% 0 in 34 W/m2
07:55 58.8 °F 57.7 °F 29.9 in Calm   1.6 mph 96% 0 in 44 W/m2
08:00 59 °F 57.6 °F 29.9 in Calm   0.7 mph 95% 0 in 38 W/m2
08:05 59 °F 57.6 °F 29.9 in Calm     95% 0 in 38 W/m2
08:10 59 °F 57.6 °F 29.9 in Calm   0.7 mph 95% 0 in 37 W/m2
08:15 59.2 °F 57.7 °F 29.9 in Calm   1.6 mph 95% 0 in 33 W/m2
08:20 59.2 °F 57.7 °F 29.9 in North 0.7 mph 2.2 mph 95% 0 in 33 W/m2
08:25 59.2 °F 57.6 °F 29.9 in Calm   2.2 mph 94% 0 in 34 W/m2
08:30 59.2 °F 57.6 °F 29.9 in Calm   2.2 mph 94% 0 in 36 W/m2
08:35 59.4 °F 57.6 °F 29.9 in ENE 0.7 mph 2.2 mph 94% 0 in 32 W/m2
08:40 59.4 °F 57.6 °F 29.9 in Calm   2.2 mph 94% 0 in 39 W/m2
08:45 59.5 °F 57.7 °F 29.9 in Calm   0.7 mph 94% 0 in 38 W/m2
08:50 59.7 °F 57.9 °F 29.9 in Calm     94% 0 in 49 W/m2
08:55 59.9 °F 58.3 °F 29.9 in Calm     94% 0 in 56 W/m2
09:00 59.9 °F 57.9 °F 29.9 in ENE 0.7 mph 1.6 mph 93% 0 in 62 W/m2
09:05 60.1 °F 58.1 °F 29.9 in Calm   1.6 mph 93% 0 in 73 W/m2
09:10 60.3 °F 58.3 °F 29.9 in Calm   1.6 mph 93% 0 in 97 W/m2
09:15 60.6 °F 58.6 °F 29.9 in NE 0.7 mph 1.6 mph 93% 0 in 93 W/m2
09:20 60.8 °F 58.3 °F 29.8 in Calm   1.6 mph 91% 0 in 92 W/m2
09:25 61 °F 57.9 °F 29.8 in NE 0.7 mph 2.2 mph 90% 0 in 87 W/m2
09:30 61.2 °F 57.9 °F 29.8 in ENE 0.7 mph 2.2 mph 89% 0 in 90 W/m2
09:35 61.3 °F 58.1 °F 29.8 in ENE 0.7 mph 3.1 mph 89% 0 in 82 W/m2
09:40 61.3 °F 57.7 °F 29.8 in ENE 0.7 mph 3.8 mph 88% 0 in 73 W/m2
09:46 61.3 °F 57.7 °F 29.8 in NE 1.6 mph 3.8 mph 88% 0 in 86 W/m2
09:51 61.5 °F 57.9 °F 29.8 in NE 2.2 mph 3.8 mph 88% 0 in 86 W/m2
09:56 61.7 °F 57.7 °F 29.8 in NE 1.6 mph 3.8 mph 87% 0 in 99 W/m2
10:01 61.9 °F 58.3 °F 29.8 in NE 1.6 mph 3.1 mph 88% 0 in 88 W/m2
10:06 61.9 °F 57.9 °F 29.8 in NE 3.1 mph 5.4 mph 87% 0 in 73 W/m2
10:11 61.9 °F 57.9 °F 29.8 in NE 0.7 mph 5.4 mph 87% 0 in 96 W/m2
10:16 62.2 °F 58.3 °F 29.8 in NE 0.7 mph 3.8 mph 87% 0 in 98 W/m2
10:21 62.4 °F 58.5 °F 29.8 in NNE 2.2 mph 5.4 mph 87% 0 in 97 W/m2
10:26 62.8 °F 58.3 °F 29.8 in NNE 2.2 mph 5.4 mph 85% 0 in 99 W/m2
10:31 63 °F 58.5 °F 29.8 in ENE 4.5 mph 6 mph 85% 0 in 97 W/m2
10:36 62.8 °F 58.3 °F 29.8 in ENE 3.8 mph 6 mph 85% 0 in 104 W/m2
10:41 63.1 °F 58.6 °F 29.8 in ENE 3.8 mph 6.9 mph 85% 0 in 125 W/m2
10:46 63.3 °F 58.5 °F 29.8 in NE 3.8 mph 7.6 mph 84% 0 in 115 W/m2
10:51 63.5 °F 58.6 °F 29.8 in NE 2.2 mph 7.6 mph 84% 0 in 118 W/m2
10:56 63.7 °F 58.5 °F 29.8 in NE 3.8 mph 7.6 mph 83% 0 in 117 W/m2
11:01 63.9 °F 59 °F 29.8 in NE 1.6 mph 7.6 mph 84% 0 in 132 W/m2
11:06 64.2 °F 59.4 °F 29.8 in NE 3.8 mph 6.9 mph 84% 0 in 166 W/m2
11:11 64.8 °F 59.7 °F 29.8 in NE 0.7 mph 7.6 mph 84% 0 in 184 W/m2
11:16 65.3 °F 60.1 °F 29.8 in NE 4.5 mph 7.6 mph 83% 0 in 193 W/m2
11:21 65.7 °F 60.1 °F 29.8 in NE 4.5 mph 8.3 mph 82% 0 in 225 W/m2
11:26 66 °F 60.1 °F 29.8 in NE 1.6 mph 8.3 mph 81% 0 in 195 W/m2
11:32 66.6 °F 60.3 °F 29.8 in NE 2.2 mph 6.9 mph 80% 0 in 169 W/m2
11:37 66.7 °F 60.1 °F 29.8 in NE 2.2 mph 6.9 mph 79% 0 in 181 W/m2
11:42 67.3 °F 61 °F 29.8 in NE 6 mph 8.3 mph 80% 0 in 195 W/m2
11:47 67.5 °F 60.4 °F 29.8 in NE 3.8 mph 10.7 mph 78% 0 in 191 W/m2
11:52 67.8 °F 60.4 °F 29.8 in NE 8.3 mph 15.2 mph 77% 0 in 225 W/m2
11:57 68 °F 60.3 °F 29.8 in NE 3.8 mph 15.2 mph 76% 0 in 242 W/m2
12:02 68.5 °F 60.6 °F 29.8 in NE 6.9 mph 15.2 mph 76% 0 in 266 W/m2
12:07 68.9 °F 61 °F 29.7 in NE 4.5 mph 10.7 mph 76% 0 in 313 W/m2
12:12 69.1 °F 60.8 °F 29.8 in NNE 6 mph 10.7 mph 75% 0 in 232 W/m2
12:17 69.3 °F 61 °F 29.7 in NNE 8.3 mph 12.1 mph 75% 0 in 242 W/m2
12:22 69.1 °F 60.8 °F 29.7 in North 6.9 mph 12.1 mph 75% 0 in 178 W/m2
12:27 68.9 °F 60.6 °F 29.7 in NNE 5.4 mph 12.1 mph 75% 0 in 227 W/m2
12:33 69.1 °F 61.2 °F 29.7 in North 7.6 mph 14.5 mph 76% 0 in 221 W/m2
12:34 69.1 °F 61.2 °F 29.7 in North 7.6 mph 14.5 mph 76% 0 in 218 W/m2
12:39 69.3 °F 61 °F 29.7 in North 6 mph 15.9 mph 75% 0 in 311 W/m2
12:44 70.2 °F 61.5 °F 29.7 in NNE 4.5 mph 15.9 mph 74% 0 in 350 W/m2
12:49 70.3 °F 61.3 °F 29.7 in North 8.3 mph 14.5 mph 73% 0 in 375 W/m2
12:54 70.5 °F 61.9 °F 29.7 in NNW 9.2 mph 15.2 mph 74% 0 in 417 W/m2
12:59 71.1 °F 62.1 °F 29.7 in NNW 3.8 mph 15.2 mph 73% 0 in 403 W/m2
13:04 72.1 °F 62.2 °F 29.7 in North 4.5 mph 15.2 mph 71% 0 in 478 W/m2
13:09 72.9 °F 63 °F 29.7 in NNE 9.8 mph 13.6 mph 71% 0 in 563 W/m2
13:14 73.4 °F 63.1 °F 29.7 in NNE 9.8 mph 15.2 mph 70% 0 in 542 W/m2
13:19 74.1 °F 63.7 °F 29.7 in North 5.4 mph 15.2 mph 70% 0 in 583 W/m2
13:24 74.5 °F 62.8 °F 29.7 in North 9.8 mph 14.5 mph 67% 0 in 563 W/m2
13:29 73.9 °F 63.1 °F 29.7 in North 6.9 mph 14.5 mph 69% 0 in 744 W/m2
13:34 74.7 °F 63.9 °F 29.7 in North 6.9 mph 13.6 mph 69% 0 in 892 W/m2
13:51 76.6 °F 64.6 °F 29.7 in North 8.3 mph 16.8 mph 66% 0 in 984 W/m2
13:56 77.5 °F 64.4 °F 29.7 in NNW 9.2 mph 16.8 mph 64% 0 in 879 W/m2
14:01 77.4 °F 64.2 °F 29.7 in NNW 10.7 mph 15.2 mph 64% 0 in 594 W/m2
14:06 77.4 °F 64.2 °F 29.7 in North 8.3 mph 15.2 mph 64% 0 in 456 W/m2
14:11 76.8 °F 64.2 °F 29.7 in North 7.6 mph 15.9 mph 65% 0 in 559 W/m2
14:17 77.4 °F 64.8 °F 29.7 in North 9.2 mph 15.9 mph 65% 0 in 407 W/m2
14:22 77.5 °F 64.4 °F 29.7 in North 6.9 mph 13.6 mph 64% 0 in 520 W/m2
14:27 78.4 °F 64.8 °F 29.7 in NNW 15.2 mph 25.1 mph 63% 0 in 818 W/m2
14:32 80.4 °F 64.8 °F 29.7 in NW 13.6 mph 25.1 mph 59% 0 in 806 W/m2
14:37 79.9 °F 63.9 °F 29.7 in NNW 12.1 mph 22.1 mph 58% 0 in 826 W/m2
14:42 80.2 °F 63.7 °F 29.7 in North 9.2 mph 22.1 mph 57% 0 in 916 W/m2
14:47 80.2 °F 63.1 °F 29.7 in NNW 11.4 mph 22.1 mph 56% 0 in 767 W/m2
14:52 79.9 °F 62.2 °F 29.7 in NW 13 mph 22.1 mph 55% 0 in 460 W/m2
14:57 79 °F 62.4 °F 29.7 in NNW 12.1 mph 20.6 mph 57% 0 in 627 W/m2
15:02 79.5 °F 63 °F 29.7 in NW 6 mph 20.6 mph 57% 0 in 615 W/m2
15:07 79.9 °F 63.3 °F 29.7 in NW 10.7 mph 19 mph 57% 0 in 721 W/m2
15:12 80.2 °F 62.1 °F 29.7 in NW 10.7 mph 21.3 mph 54% 0 in 717 W/m2
15:17 80.1 °F 62.4 °F 29.7 in NNW 12.1 mph 21.3 mph 55% 0 in 1067 W/m2
15:22 80.2 °F 62.1 °F 29.7 in NW 12.1 mph 24.4 mph 54% 0 in 338 W/m2
15:27 79.5 °F 62.4 °F 29.7 in NW 11.4 mph 24.4 mph 56% 0 in 590 W/m2
15:32 79.9 °F 63.3 °F 29.7 in NW 9.2 mph 18.3 mph 57% 0 in 562 W/m2
15:37 79.3 °F 61.3 °F 29.7 in NNW 12.1 mph 23.5 mph 54% 0 in 584 W/m2
15:42 79 °F 61.5 °F 29.7 in NNW 13 mph 23.5 mph 55% 0 in 412 W/m2
15:47 78.6 °F 61.7 °F 29.7 in NW 10.7 mph 23.5 mph 56% 0 in 738 W/m2
15:52 78.6 °F 61.7 °F 29.7 in NNW 9.2 mph 23.5 mph 56% 0 in 597 W/m2
15:57 79 °F 61.5 °F 29.7 in NW 10.7 mph 20.6 mph 55% 0 in 408 W/m2
16:02 79 °F 60.4 °F 29.7 in NW 11.4 mph 20.6 mph 53% 0 in 447 W/m2
16:07 79 °F 59.9 °F 29.7 in NNW 9.8 mph 19 mph 52% 0 in 544 W/m2
16:12 79 °F 59.9 °F 29.7 in NNW 9.2 mph 21.3 mph 52% 0 in 773 W/m2
16:17 80.2 °F 61.5 °F 29.7 in NW 7.6 mph 21.3 mph 53% 0 in 915 W/m2
16:22 80.4 °F 61.2 °F 29.7 in NNW 12.1 mph 19 mph 52% 0 in 445 W/m2
16:27 79.5 °F 61 °F 29.6 in North 6.9 mph 19 mph 53% 0 in 673 W/m2
16:32 79.2 °F 60.6 °F 29.6 in NNW 9.8 mph 22.1 mph 53% 0 in 490 W/m2
16:37 79 °F 59.9 °F 29.6 in NNW 11.4 mph 22.1 mph 52% 0 in 387 W/m2
16:42 78.1 °F 57.9 °F 29.6 in NNW 19.7 mph 31.1 mph 50% 0 in 365 W/m2
16:47 78.4 °F 58.3 °F 29.6 in NNW 13 mph 31.1 mph 50% 0 in 390 W/m2
16:52 77.9 °F 57.2 °F 29.6 in NW 15.2 mph 33.6 mph 49% 0 in 270 W/m2
16:57 77.5 °F 57.6 °F 29.6 in NW 14.5 mph 33.6 mph 50% 0 in 359 W/m2
17:02 77 °F 57.6 °F 29.6 in NW 11.4 mph 24.4 mph 51% 0 in 195 W/m2
17:07 76.3 °F 57.9 °F 29.6 in NW 13 mph 24.4 mph 53% 0 in 146 W/m2
17:12 75.7 °F 57.9 °F 29.6 in NW 13 mph 25.9 mph 54% 0 in 136 W/m2
17:17 75.7 °F 57.9 °F 29.6 in NW 11.4 mph 25.9 mph 54% 0 in 139 W/m2
17:22 75.6 °F 57.7 °F 29.6 in NW 6.9 mph 22.1 mph 54% 0 in 131 W/m2
17:27 75.6 °F 58.3 °F 29.6 in NNW 13 mph 24.4 mph 55% 0 in 103 W/m2
17:32 75.4 °F 58.1 °F 29.6 in North 17.4 mph 24.4 mph 55% 0 in 134 W/m2
17:37 75.6 °F 58.3 °F 29.6 in NNW 18.3 mph 25.1 mph 55% 0 in 158 W/m2
17:42 75.6 °F 58.3 °F 29.6 in NNW 12.1 mph 25.1 mph 55% 0 in 155 W/m2
17:47 75.7 °F 59 °F 29.6 in NNW 13.6 mph 25.1 mph 56% 0 in 145 W/m2
17:52 75.7 °F 59 °F 29.6 in NNW 15.2 mph 22.1 mph 56% 0 in 139 W/m2
17:57 75.7 °F 59 °F 29.6 in NW 9.2 mph 19 mph 56% 0 in 143 W/m2
18:02 75.7 °F 59 °F 29.6 in NW 5.4 mph 19 mph 56% 0 in 115 W/m2
18:07 75.6 °F 59.4 °F 29.6 in NW 13.6 mph 21.3 mph 57% 0 in 101 W/m2
18:12 75.6 °F 59.4 °F 29.6 in NW 7.6 mph 21.3 mph 57% 0 in 109 W/m2
18:17 75.4 °F 59.2 °F 29.6 in NNW 12.1 mph 19.7 mph 57% 0 in 88 W/m2
18:22 75.2 °F 59.4 °F 29.6 in NNW 10.7 mph 19.7 mph 58% 0 in 68 W/m2
18:27 75 °F 59.7 °F 29.6 in NNW 9.8 mph 17.4 mph 59% 0 in 44 W/m2
18:32 74.3 °F 59.5 °F 29.6 in NNW 9.8 mph 15.9 mph 60% 0 in 43 W/m2
18:37 73.9 °F 59.7 °F 29.6 in NNW 6.9 mph 21.3 mph 61% 0 in 36 W/m2
18:42 73.9 °F 59.7 °F 29.6 in NNW 11.4 mph 21.3 mph 61% 0 in 36 W/m2
18:47 73.9 °F 59.7 °F 29.6 in NNW 1.6 mph 15.2 mph 61% 0 in 27 W/m2
18:52 73.9 °F 60.1 °F 29.6 in North 2.2 mph 15.2 mph 62% 0 in 24 W/m2
18:57 73.9 °F 60.1 °F 29.6 in NNW 4.5 mph 11.4 mph 62% 0 in 29 W/m2
19:02 74.1 °F 59.7 °F 29.6 in NNW 6 mph 13 mph 61% 0 in 33 W/m2
19:07 74.3 °F 60.1 °F 29.6 in NNW 2.2 mph 13 mph 61% 0 in 39 W/m2
19:12 74.7 °F 60.4 °F 29.6 in Calm   13 mph 61% 0 in 145 W/m2
19:17 75.2 °F 59.9 °F 29.6 in NW 3.1 mph 11.4 mph 59% 0 in 93 W/m2
19:22 75.2 °F 59.9 °F 29.6 in North 2.2 mph 4.5 mph 59% 0 in 87 W/m2
19:27 75 °F 60.6 °F 29.6 in North 3.8 mph 8.3 mph 61% 0 in 106 W/m2
19:32 74.7 °F 60.4 °F 29.6 in NNW 6.9 mph 15.9 mph 61% 0 in 106 W/m2
19:37 75.2 °F 60.4 °F 29.6 in NNW 9.2 mph 15.9 mph 60% 0 in 199 W/m2
19:42 75.4 °F 60.6 °F 29.6 in NNW 13 mph 19 mph 60% 0 in 116 W/m2
19:47 75.9 °F 60.6 °F 29.6 in NNW 9.2 mph 19 mph 59% 0 in 156 W/m2
19:52 76.8 °F 60.4 °F 29.6 in NNW 11.4 mph 18.3 mph 57% 0 in 133 W/m2
19:57 77.2 °F 59.7 °F 29.6 in NNW 10.7 mph 20.6 mph 55% 0 in 125 W/m2
20:02 77.2 °F 59.7 °F 29.6 in NW 4.5 mph 20.6 mph 55% 0 in 106 W/m2
20:07 77.9 °F 60.4 °F 29.6 in WNW 3.8 mph 18.3 mph 55% 0 in 87 W/m2
20:12 78.4 °F 59.9 °F 29.6 in WNW 5.4 mph 9.8 mph 53% 0 in 66 W/m2
20:17 77.2 °F 59.7 °F 29.6 in NNW 5.4 mph 9.8 mph 55% 0 in 43 W/m2
20:22 75.9 °F 59.5 °F 29.6 in NW 6 mph 16.8 mph 57% 0 in 20 W/m2
20:27 75.4 °F 59.5 °F 29.6 in NW 7.6 mph 18.3 mph 58% 0 in 14 W/m2
20:32 75 °F 60.3 °F 29.6 in NW 5.4 mph 18.3 mph 60% 0 in 13 W/m2
20:37 74.8 °F 60.1 °F 29.6 in NW 6.9 mph 13 mph 60% 0 in 9 W/m2
20:42 74.7 °F 59.9 °F 29.6 in NW 5.4 mph 13.6 mph 60% 0 in 6 W/m2
20:47 74.5 °F 60.3 °F 29.6 in NW 5.4 mph 13.6 mph 61% 0 in 3 W/m2
20:52 74.5 °F 60.3 °F 29.6 in NW 6 mph 13.6 mph 61% 0 in 0 W/m2
20:57 74.3 °F 60.1 °F 29.6 in NNW 5.4 mph 13 mph 61% 0 in 0 W/m2
21:02 74.1 °F 59.7 °F 29.6 in NNW 4.5 mph 13 mph 61% 0 in 0 W/m2
21:07 74.1 °F 59.7 °F 29.6 in NNW 6.9 mph 10.7 mph 61% 0 in 0 W/m2
21:12 74.1 °F 59.7 °F 29.6 in NNW 4.5 mph 10.7 mph 61% 0 in 0 W/m2
21:17 73.9 °F 59.7 °F 29.6 in NW 4.5 mph 9.2 mph 61% 0 in 0 W/m2
21:22 73.8 °F 60.1 °F 29.6 in NNW 4.5 mph 8.3 mph 62% 0 in 0 W/m2
21:27 73.4 °F 59.5 °F 29.6 in NNW 6 mph 9.8 mph 62% 0 in 0 W/m2
21:32 73.4 °F 60.1 °F 29.6 in NW 3.8 mph 9.8 mph 63% 0 in 0 W/m2
21:37 73 °F 59.7 °F 29.6 in NW 3.1 mph 9.2 mph 63% 0 in 0 W/m2
21:42 72.7 °F 59.4 °F 29.6 in NNW 4.5 mph 7.6 mph 63% 0 in 0 W/m2
21:47 72.5 °F 59.7 °F 29.6 in NNW 3.8 mph 7.6 mph 64% 0 in 0 W/m2
21:52 72.5 °F 59.7 °F 29.6 in NW 7.6 mph 9.2 mph 64% 0 in 0 W/m2
21:57 72.7 °F 59.4 °F 29.6 in NW 5.4 mph 10.7 mph 63% 0 in 0 W/m2
22:02 72.9 °F 59.5 °F 29.6 in NW 5.4 mph 10.7 mph 63% 0 in 0 W/m2
22:07 72.3 °F 59.5 °F 29.6 in NW 6 mph 8.3 mph 64% 0 in 0 W/m2
22:12 72.1 °F 59.4 °F 29.6 in NNW 3.8 mph 8.3 mph 64% 0 in 0 W/m2
22:17 72 °F 59.5 °F 29.6 in NNW 1.6 mph 7.6 mph 65% 0 in 0 W/m2
22:22 72 °F 59.5 °F 29.6 in NNW 1.6 mph 7.6 mph 65% 0 in 0 W/m2
22:27 71.8 °F 59.4 °F 29.6 in NNW 3.8 mph 7.6 mph 65% 0 in 0 W/m2
22:32 71.8 °F 59.4 °F 29.6 in NNW 1.6 mph 6 mph 65% 0 in 0 W/m2
22:37 71.6 °F 59.2 °F 29.6 in Calm   5.4 mph 65% 0 in 0 W/m2
22:42 71.2 °F 59.7 °F 29.6 in Calm   4.5 mph 67% 0 in 0 W/m2
22:47 71.2 °F 59.7 °F 29.6 in NW 2.2 mph 7.6 mph 67% 0 in 0 W/m2
22:52 71.8 °F 59.4 °F 29.7 in NNW 3.8 mph 13 mph 65% 0 in 0 W/m2
22:57 72 °F 59.5 °F 29.7 in NNW 2.2 mph 13 mph 65% 0 in 0 W/m2
23:02 72 °F 59.5 °F 29.7 in NNW 7.6 mph 10.7 mph 65% 0 in 0 W/m2
23:07 72 °F 59.2 °F 29.7 in NNW 3.1 mph 10.7 mph 64% 0 in 0 W/m2
23:12 71.8 °F 59.4 °F 29.7 in North 0.7 mph 10.7 mph 65% 0 in 0 W/m2
23:17 71.4 °F 59.5 °F 29.7 in NE 0.7 mph 4.5 mph 66% 0 in 0 W/m2
23:22 71.4 °F 59.5 °F 29.7 in North 2.2 mph 7.6 mph 66% 0 in 0 W/m2
23:27 71.6 °F 59.2 °F 29.7 in NNW 3.8 mph 8.3 mph 65% 0 in 0 W/m2
23:32 71.6 °F 59.2 °F 29.7 in North 7.6 mph 10.7 mph 65% 0 in 0 W/m2
23:37 72 °F 58.6 °F 29.7 in NNW 6 mph 10.7 mph 63% 0 in 0 W/m2
23:42 72.1 °F 58.8 °F 29.7 in NW 2.2 mph 10.7 mph 63% 0 in 0 W/m2
23:47 72 °F 58.6 °F 29.6 in NW 3.1 mph 9.8 mph 63% 0 in 0 W/m2
23:52 71.8 °F 58.5 °F 29.6 in NNW 6 mph 10.7 mph 63% 0 in 0 W/m2
23:57 71.8 °F 58.5 °F 29.6 in NNW 3.1 mph 10.7 mph 63% 0 in 0 W/m2
Northern Hawkes Bay. New Zealand Historic Data
Compliments of Weather Underground - 2 mb